Time;durP1;ratioP1;P1;durP2;ratioP2;P2;SDS_P1;SDS_P2;PMS_P1;PMS_P2;Temp;Humidity;BMP_temperature;BMP_pressure;BME280_temperature;BME280_humidity;BME280_pressure;Samples;Min_cycle;Max_cycle;Signal;HPM_P1;HPM_P2
2023/06/07 00:02:00;;;;;;;7.63;6.82;;;17.50;99.90;;;;;;5112069;28;20028;-71
2023/06/07 00:04:25;;;;;;;8.77;6.85;;;17.50;99.90;;;;;;5111246;28;20043;-71
2023/06/07 00:06:56;;;;;;;7.85;7.13;;;17.50;99.90;;;;;;5112664;28;20027;-71
2023/06/07 00:09:22;;;;;;;7.38;6.45;;;17.40;99.90;;;;;;5112439;28;20088;-71
2023/06/07 00:11:48;;;;;;;7.60;6.80;;;17.50;99.90;;;;;;5112919;28;20044;-71
2023/06/07 00:14:13;;;;;;;6.85;6.15;;;17.40;99.90;;;;;;5111844;28;20107;-71
2023/06/07 00:16:39;;;;;;;6.90;6.20;;;17.50;99.90;;;;;;5115310;28;20038;-71
2023/06/07 00:19:06;;;;;;;7.43;6.18;;;17.40;99.90;;;;;;5115773;28;20431;-71
2023/06/07 00:21:32;;;;;;;6.93;5.90;;;17.50;99.90;;;;;;5116256;28;20482;-71
2023/06/07 00:23:57;;;;;;;6.00;5.40;;;17.40;99.90;;;;;;5115883;28;20028;-74
2023/06/07 00:26:23;;;;;;;8.07;5.32;;;17.40;99.90;;;;;;5115826;28;20027;-71
2023/06/07 00:28:49;;;;;;;7.97;5.65;;;17.40;99.90;;;;;;5116062;28;20023;-71
2023/06/07 00:31:15;;;;;;;6.68;5.97;;;17.40;99.90;;;;;;5114484;28;20027;-71
2023/06/07 00:33:40;;;;;;;6.85;5.35;;;17.40;99.90;;;;;;5116153;28;20080;-71
2023/06/07 00:36:06;;;;;;;8.30;5.70;;;17.40;99.90;;;;;;5115548;28;20028;-72
2023/06/07 00:38:32;;;;;;;7.15;5.50;;;17.40;99.90;;;;;;5116053;28;20028;-71
2023/06/07 00:40:57;;;;;;;6.05;5.50;;;17.40;99.90;;;;;;5116000;28;20430;-71
2023/06/07 00:43:24;;;;;;;5.90;5.10;;;17.50;99.90;;;;;;5115800;28;20062;-71
2023/06/07 00:45:50;;;;;;;6.07;5.40;;;17.40;99.90;;;;;;5115732;28;20051;-71
2023/06/07 00:48:15;;;;;;;6.22;5.63;;;17.40;99.90;;;;;;5115338;28;20081;-71
2023/06/07 00:50:41;;;;;;;6.13;5.35;;;17.40;99.90;;;;;;5115704;28;20367;-71
2023/06/07 00:53:08;;;;;;;10.95;6.13;;;17.40;99.90;;;;;;5114203;28;20027;-71
2023/06/07 00:55:34;;;;;;;6.50;5.90;;;17.40;99.90;;;;;;5115863;28;20023;-70
2023/06/07 00:58:00;;;;;;;7.18;5.22;;;17.40;99.90;;;;;;5115351;28;20023;-71
2023/06/07 01:00:26;;;;;;;8.88;5.38;;;17.40;99.90;;;;;;5114892;28;20027;-71
2023/06/07 01:02:53;;;;;;;6.13;5.53;;;17.40;99.90;;;;;;5115263;28;20019;-71
2023/06/07 01:05:20;;;;;;;6.43;5.80;;;17.40;99.90;;;;;;5114494;28;20055;-71
2023/06/07 01:07:46;;;;;;;9.13;5.85;;;17.40;99.90;;;;;;5115526;28;20035;-71
2023/06/07 01:10:12;;;;;;;6.35;5.68;;;17.40;99.90;;;;;;5114794;28;20039;-71
2023/06/07 01:12:39;;;;;;;6.75;5.35;;;17.40;99.90;;;;;;5115380;28;20043;-71
2023/06/07 01:15:06;;;;;;;7.40;5.90;;;17.40;99.90;;;;;;5114833;28;20020;-71
2023/06/07 01:17:40;;;;;;;6.30;5.70;;;17.40;99.90;;;;;;5115185;28;20063;-71
2023/06/07 01:20:15;;;;;;;6.57;5.88;;;17.40;99.90;;;;;;5114628;28;20032;-71
2023/06/07 01:22:44;;;;;;;6.05;5.45;;;17.40;99.90;;;;;;5115217;28;20520;-71
2023/06/07 01:25:10;;;;;;;6.03;5.43;;;17.40;99.90;;;;;;5114528;28;20028;-71
2023/06/07 01:27:39;;;;;;;6.18;5.57;;;17.40;99.90;;;;;;5113794;28;20391;-71
2023/06/07 01:30:07;;;;;;;6.13;5.53;;;17.40;99.90;;;;;;5114408;28;20042;-73
2023/06/07 01:32:33;;;;;;;6.57;5.97;;;17.40;99.90;;;;;;5115067;28;20077;-71
2023/06/07 01:35:00;;;;;;;6.80;6.20;;;17.40;99.90;;;;;;5114993;28;20028;-71
2023/06/07 01:37:26;;;;;;;8.95;5.88;;;17.40;99.90;;;;;;5114167;28;20621;-71
2023/06/07 01:39:54;;;;;;;7.82;6.00;;;17.40;99.90;;;;;;5114710;28;20027;-71
2023/06/07 01:42:21;;;;;;;7.00;6.30;;;17.40;99.90;;;;;;5114317;28;20367;-71
2023/06/07 01:44:47;;;;;;;10.35;6.70;;;17.40;99.90;;;;;;5114806;28;20464;-71
2023/06/07 01:47:14;;;;;;;9.48;6.63;;;17.40;99.90;;;;;;5114591;28;20506;-71
2023/06/07 01:49:41;;;;;;;7.65;6.55;;;17.40;99.90;;;;;;5114560;28;20096;-71
2023/06/07 01:52:07;;;;;;;6.78;6.05;;;17.40;99.90;;;;;;5113997;28;20524;-74
2023/06/07 01:54:32;;;;;;;7.47;6.78;;;17.30;99.90;;;;;;5114491;28;20027;-71
2023/06/07 01:57:25;;;;;;;7.50;6.80;;;17.40;99.90;;;;;;5114486;28;20027;-71
2023/06/07 02:00:13;;;;;;;9.50;7.07;;;17.30;99.90;;;;;;5114552;28;20035;-71
2023/06/07 02:02:41;;;;;;;8.15;6.75;;;17.30;99.90;;;;;;5114430;28;20031;-71
2023/06/07 02:05:17;;;;;;;8.50;7.32;;;17.30;99.90;;;;;;5114310;28;20024;-74
2023/06/07 02:07:49;;;;;;;7.90;7.10;;;17.30;99.90;;;;;;5114401;28;20480;-71
2023/06/07 02:10:19;;;;;;;7.70;7.00;;;17.30;99.90;;;;;;5113068;28;20121;-71
2023/06/07 02:12:46;;;;;;;8.75;7.53;;;17.30;99.90;;;;;;5114383;28;20472;-71
2023/06/07 02:15:12;;;;;;;7.38;6.70;;;17.30;99.90;;;;;;5113582;28;20106;-71
2023/06/07 02:17:57;;;;;;;9.52;7.95;;;17.30;99.90;;;;;;5113802;28;20544;-71
2023/06/07 02:20:23;;;;;;;7.88;7.15;;;17.30;99.90;;;;;;5113000;28;20073;-71
2023/06/07 02:22:49;;;;;;;8.18;7.38;;;17.30;99.90;;;;;;5113888;28;20110;-71
2023/06/07 02:25:15;;;;;;;9.52;8.48;;;17.20;99.90;;;;;;5113414;28;20107;-71
2023/06/07 02:27:40;;;;;;;8.50;7.70;;;17.20;99.90;;;;;;5113918;28;20062;-71
2023/06/07 02:30:07;;;;;;;9.63;8.57;;;17.20;99.90;;;;;;5113799;28;20031;-71
2023/06/07 02:32:33;;;;;;;8.63;7.72;;;17.20;99.90;;;;;;5113460;28;20032;-71
2023/06/07 02:34:59;;;;;;;9.40;7.75;;;17.20;99.90;;;;;;5113717;28;20031;-71
2023/06/07 02:37:24;;;;;;;8.60;7.78;;;17.20;99.90;;;;;;5113115;28;20072;-71
2023/06/07 02:39:50;;;;;;;8.20;7.40;;;17.20;99.90;;;;;;5113169;28;20055;-71
2023/06/07 02:42:16;;;;;;;8.90;8.00;;;17.20;99.90;;;;;;5113134;28;20050;-71
2023/06/07 02:44:41;;;;;;;9.57;8.18;;;17.20;99.90;;;;;;5113238;28;20497;-71
2023/06/07 02:47:07;;;;;;;9.20;7.95;;;17.20;99.90;;;;;;5113243;28;20051;-71
2023/06/07 02:49:32;;;;;;;11.20;7.95;;;17.20;99.90;;;;;;5112571;28;20050;-71
2023/06/07 02:51:58;;;;;;;10.90;8.25;;;17.20;99.90;;;;;;5113421;28;20110;-71
2023/06/07 02:54:23;;;;;;;8.82;7.65;;;17.20;99.90;;;;;;5113035;28;20452;-71
2023/06/07 02:56:49;;;;;;;8.70;7.80;;;17.20;99.90;;;;;;5113519;28;20077;-71
2023/06/07 02:59:15;;;;;;;9.68;8.63;;;17.20;99.90;;;;;;5112519;28;20031;-71
2023/06/07 03:01:40;;;;;;;9.50;8.43;;;17.20;99.90;;;;;;5113318;28;20099;-71
2023/06/07 03:04:06;;;;;;;10.80;7.72;;;17.20;99.90;;;;;;5112967;28;20026;-71
2023/06/07 03:06:32;;;;;;;12.88;8.73;;;17.20;99.90;;;;;;5112808;28;20792;-71
2023/06/07 03:08:58;;;;;;;9.68;8.60;;;17.20;99.90;;;;;;5113021;28;20019;-71
2023/06/07 03:11:23;;;;;;;13.95;9.27;;;17.10;99.90;;;;;;5112031;28;20043;-71
2023/06/07 03:13:50;;;;;;;12.02;9.48;;;17.20;99.90;;;;;;5113071;28;20090;-71
2023/06/07 03:16:16;;;;;;;9.77;8.68;;;17.20;99.90;;;;;;5112613;28;20077;-71
2023/06/07 03:18:41;;;;;;;10.38;9.38;;;17.20;99.90;;;;;;5113012;28;20472;-71
2023/06/07 03:21:08;;;;;;;11.40;9.90;;;17.30;99.90;;;;;;5111877;28;20051;-71
2023/06/07 03:23:33;;;;;;;11.02;9.82;;;17.30;99.90;;;;;;5112408;28;20079;-71
2023/06/07 03:25:59;;;;;;;10.80;8.95;;;17.30;99.90;;;;;;5113187;28;20488;-71
2023/06/07 03:28:25;;;;;;;12.70;10.57;;;17.30;99.90;;;;;;5112570;28;20379;-71
2023/06/07 03:30:51;;;;;;;11.43;10.07;;;17.30;99.90;;;;;;5112829;28;20035;-71
2023/06/07 03:33:16;;;;;;;11.40;10.20;;;17.30;99.90;;;;;;5112349;28;20063;-71
2023/06/07 03:35:44;;;;;;;15.32;9.95;;;17.30;99.90;;;;;;5112818;28;20106;-71
2023/06/07 03:38:10;;;;;;;11.50;10.15;;;17.30;99.90;;;;;;5112772;28;20036;-71
2023/06/07 03:40:35;;;;;;;10.88;9.77;;;17.30;99.90;;;;;;5110987;28;20372;-71
2023/06/07 03:43:01;;;;;;;12.95;9.95;;;17.30;99.90;;;;;;5112730;28;20024;-71
2023/06/07 03:45:27;;;;;;;10.57;9.57;;;17.30;99.90;;;;;;5112347;28;20122;-71
2023/06/07 03:47:53;;;;;;;12.88;9.55;;;17.30;99.90;;;;;;5112479;28;20468;-71
2023/06/07 03:50:20;;;;;;;10.13;9.13;;;17.30;99.90;;;;;;5112840;28;20023;-71
2023/06/07 03:52:46;;;;;;;11.00;9.15;;;17.30;99.90;;;;;;5117147;28;20122;-71
2023/06/07 03:55:11;;;;;;;10.30;8.80;;;17.30;99.90;;;;;;5116762;28;20095;-71
2023/06/07 03:57:37;;;;;;;10.82;9.50;;;17.30;99.90;;;;;;5116615;28;20062;-71
2023/06/07 04:00:09;;;;;;;11.05;9.88;;;17.30;99.90;;;;;;5115936;28;20373;-71
2023/06/07 04:02:34;;;;;;;;;;;17.30;99.90;;;;;;5116144;28;20159;-71
2023/06/07 04:05:00;;;;;;;11.60;8.82;;;17.30;99.90;;;;;;5115652;28;20400;-71
2023/06/07 04:07:27;;;;;;;9.75;8.68;;;17.30;99.90;;;;;;5115686;28;20430;-71
2023/06/07 04:09:53;;;;;;;10.43;8.82;;;17.30;99.90;;;;;;5115954;28;20110;-71
2023/06/07 04:12:18;;;;;;;12.02;9.98;;;17.20;99.90;;;;;;5115573;28;20107;-72
2023/06/07 04:14:44;;;;;;;11.93;10.02;;;17.30;99.90;;;;;;5116042;28;20452;-71
2023/06/07 04:17:10;;;;;;;11.93;10.25;;;17.20;99.90;;;;;;5115743;28;20019;-71
2023/06/07 04:19:35;;;;;;;11.20;10.10;;;17.20;99.90;;;;;;5114744;28;20494;-71
2023/06/07 04:22:04;;;;;;;10.65;9.55;;;17.30;99.90;;;;;;5115666;28;20041;-71
2023/06/07 04:24:30;;;;;;;10.75;8.70;;;17.20;99.90;;;;;;5110115;28;20065;-71
2023/06/07 04:26:56;;;;;;;10.95;9.35;;;17.30;99.90;;;;;;5115715;28;20024;-71
2023/06/07 04:29:25;;;;;;;12.07;8.95;;;17.30;99.90;;;;;;5115123;28;20437;-71
2023/06/07 04:31:54;;;;;;;9.70;8.73;;;17.30;99.90;;;;;;5115699;28;20027;-71
2023/06/07 04:34:21;;;;;;;10.75;9.73;;;17.30;99.90;;;;;;5115236;28;20036;-72
2023/06/07 04:36:49;;;;;;;9.50;8.45;;;17.30;99.90;;;;;;5112822;28;20024;-71
2023/06/07 04:39:16;;;;;;;9.73;8.73;;;17.30;99.90;;;;;;5115330;28;20085;-72
2023/06/07 04:41:42;;;;;;;9.85;8.75;;;17.30;99.90;;;;;;5114961;28;20024;-71
2023/06/07 04:44:08;;;;;;;9.93;8.90;;;17.30;99.90;;;;;;5112587;28;20069;-71
2023/06/07 04:46:34;;;;;;;8.98;8.15;;;17.30;99.90;;;;;;5114849;28;20044;-71
2023/06/07 04:49:00;;;;;;;9.23;7.65;;;17.40;99.90;;;;;;5115279;28;20023;-71
2023/06/07 04:51:29;;;;;;;10.27;9.25;;;17.30;99.90;;;;;;5114839;28;20452;-71
2023/06/07 04:53:58;;;;;;;11.95;7.75;;;17.30;99.90;;;;;;5115335;28;20035;-71
2023/06/07 04:56:30;;;;;;;8.63;7.82;;;17.30;99.90;;;;;;5114685;28;20031;-71
2023/06/07 04:58:58;;;;;;;8.57;7.68;;;17.30;99.90;;;;;;5115200;28;20367;-71
2023/06/07 05:01:24;;;;;;;9.88;8.02;;;17.30;99.90;;;;;;5114142;28;20094;-71
2023/06/07 05:03:57;;;;;;;10.88;8.45;;;17.30;99.90;;;;;;5115107;28;20098;-71
2023/06/07 05:06:22;;;;;;;9.63;7.70;;;17.30;99.90;;;;;;5114342;28;20115;-74
2023/06/07 05:08:48;;;;;;;9.25;8.07;;;17.30;99.90;;;;;;5114467;28;20103;-71
2023/06/07 05:11:14;;;;;;;10.07;8.07;;;17.40;99.90;;;;;;5114868;28;20115;-71
2023/06/07 05:13:39;;;;;;;8.02;7.22;;;17.30;99.90;;;;;;5114016;28;20433;-71
2023/06/07 05:16:06;;;;;;;12.10;7.65;;;17.30;99.90;;;;;;5114808;28;20046;-71
2023/06/07 05:18:31;;;;;;;8.85;7.95;;;17.40;99.90;;;;;;5114067;28;20464;-70
2023/06/07 05:20:57;;;;;;;10.43;8.20;;;17.40;99.90;;;;;;5113428;28;20035;-70
2023/06/07 05:23:23;;;;;;;8.77;7.88;;;17.30;99.90;;;;;;5114010;28;20028;-73
2023/06/07 05:25:48;;;;;;;8.90;8.00;;;17.40;99.90;;;;;;5114725;28;20110;-70
2023/06/07 05:28:14;;;;;;;9.15;7.90;;;17.30;99.90;;;;;;5114318;28;20031;-70
2023/06/07 05:30:40;;;;;;;10.48;7.45;;;17.30;99.90;;;;;;5113992;28;20023;-71
2023/06/07 05:33:06;;;;;;;12.88;8.55;;;17.30;99.90;;;;;;5114387;28;20036;-71
2023/06/07 05:35:32;;;;;;;12.65;7.90;;;17.30;99.90;;;;;;5113932;28;20372;-71
2023/06/07 05:37:58;;;;;;;8.98;8.07;;;17.30;99.90;;;;;;5114483;28;20019;-71
2023/06/07 05:40:23;;;;;;;10.25;7.15;;;17.30;99.90;;;;;;5113767;28;20027;-74
2023/06/07 05:42:50;;;;;;;12.52;7.55;;;17.40;99.90;;;;;;5113777;28;20439;-71
2023/06/07 05:45:16;;;;;;;9.35;8.52;;;17.40;99.90;;;;;;5114185;28;20041;-71
2023/06/07 05:47:43;;;;;;;8.18;7.30;;;17.40;99.90;;;;;;5113590;28;20040;-71
2023/06/07 05:50:10;;;;;;;8.48;7.55;;;17.40;99.90;;;;;;5111502;28;20080;-71
2023/06/07 05:52:40;;;;;;;9.10;7.78;;;17.40;99.90;;;;;;5113531;28;20032;-71
2023/06/07 05:55:07;;;;;;;11.10;8.13;;;17.40;99.90;;;;;;5113996;28;20023;-71
2023/06/07 05:57:32;;;;;;;12.77;8.57;;;17.40;99.90;;;;;;5113471;28;20106;-71
2023/06/07 05:59:58;;;;;;;9.65;8.40;;;17.50;99.90;;;;;;5114099;28;20103;-71
2023/06/07 06:02:24;;;;;;;10.10;8.07;;;17.50;99.90;;;;;;5113690;28;20165;-72
2023/06/07 06:04:52;;;;;;;9.70;8.70;;;17.50;99.90;;;;;;5113292;28;20600;-71
2023/06/07 06:07:19;;;;;;;8.27;7.47;;;17.60;99.90;;;;;;5113858;28;20023;-71
2023/06/07 06:09:45;;;;;;;12.02;8.45;;;17.60;99.90;;;;;;5112733;28;20487;-71
2023/06/07 06:12:11;;;;;;;9.23;8.35;;;17.60;99.90;;;;;;5113290;28;20047;-71
2023/06/07 06:14:37;;;;;;;8.50;7.68;;;17.60;99.90;;;;;;5112028;28;20478;-71
2023/06/07 06:17:04;;;;;;;9.70;8.68;;;17.60;99.90;;;;;;5113740;28;20129;-71
2023/06/07 06:19:29;;;;;;;8.90;8.00;;;17.70;99.90;;;;;;5110249;28;20054;-71
2023/06/07 06:21:55;;;;;;;9.00;8.10;;;17.70;99.90;;;;;;5113443;28;20058;-70
2023/06/07 06:24:21;;;;;;;10.80;8.27;;;17.70;99.90;;;;;;5113446;27;20401;-70
2023/06/07 06:26:46;;;;;;;13.77;8.07;;;17.80;99.90;;;;;;5112673;28;20051;-70
2023/06/07 06:29:12;;;;;;;8.93;7.82;;;17.80;99.90;;;;;;5112827;28;20425;-71
2023/06/07 06:31:39;;;;;;;10.02;8.93;;;17.90;99.90;;;;;;5112402;28;20065;-71
2023/06/07 06:34:07;;;;;;;12.07;9.45;;;17.90;99.90;;;;;;5112756;28;20397;-71
2023/06/07 06:36:33;;;;;;;13.68;9.32;;;18.00;99.90;;;;;;5112737;28;20015;-71
2023/06/07 06:38:58;;;;;;;10.02;8.88;;;18.00;99.90;;;;;;5113173;28;20509;-70
2023/06/07 06:41:24;;;;;;;11.18;8.25;;;18.00;99.90;;;;;;5113824;28;20463;-70
2023/06/07 06:43:50;;;;;;;11.32;9.35;;;18.00;99.90;;;;;;5112642;28;20118;-71
2023/06/07 06:46:15;;;;;;;10.23;8.95;;;18.00;99.90;;;;;;5112116;28;20058;-71
2023/06/07 06:48:41;;;;;;;10.15;8.93;;;18.10;99.90;;;;;;5111912;28;20084;-71
2023/06/07 06:51:07;;;;;;;11.93;8.80;;;18.10;99.90;;;;;;5113234;28;20031;-71
2023/06/07 06:53:33;;;;;;;9.30;8.40;;;18.10;99.90;;;;;;5112652;28;20380;-71
2023/06/07 06:55:58;;;;;;;10.60;8.55;;;18.10;99.90;;;;;;5112826;28;20030;-71
2023/06/07 06:58:24;;;;;;;12.77;9.13;;;18.10;99.90;;;;;;5111750;28;20023;-71
2023/06/07 07:00:50;;;;;;;13.05;9.73;;;18.10;99.90;;;;;;5112717;28;20046;-70
2023/06/07 07:03:15;;;;;;;9.15;8.25;;;18.20;99.90;;;;;;5113020;28;20031;-71
2023/06/07 07:05:41;;;;;;;10.18;8.52;;;18.30;99.90;;;;;;5112522;28;20027;-69
2023/06/07 07:08:07;;;;;;;9.48;8.13;;;18.30;99.90;;;;;;5112706;28;20053;-70
2023/06/07 07:10:33;;;;;;;10.82;8.93;;;18.30;99.90;;;;;;5111996;28;20108;-74
2023/06/07 07:12:58;;;;;;;10.38;8.93;;;18.40;99.90;;;;;;5102542;28;20035;-71
2023/06/07 07:15:24;;;;;;;9.40;8.30;;;18.30;99.90;;;;;;5092669;28;20035;-70
2023/06/07 07:17:50;;;;;;;11.48;9.45;;;18.40;99.90;;;;;;5092035;28;20020;-71
2023/06/07 07:20:17;;;;;;;10.45;8.10;;;18.40;99.90;;;;;;5095276;28;20061;-71
2023/06/07 07:22:44;;;;;;;9.27;8.38;;;18.40;99.90;;;;;;5112444;28;20024;-71
2023/06/07 07:25:11;;;;;;;11.70;8.57;;;18.40;99.90;;;;;;5112855;28;20084;-71
2023/06/07 07:27:36;;;;;;;9.10;8.15;;;18.40;99.90;;;;;;5112316;28;20471;-71
2023/06/07 07:30:04;;;;;;;8.77;7.75;;;18.50;99.90;;;;;;5112814;28;20074;-71
2023/06/07 07:32:30;;;;;;;14.43;7.78;;;18.50;99.90;;;;;;5112635;28;20035;-71
2023/06/07 07:34:55;;;;;;;11.70;8.48;;;18.50;99.90;;;;;;5112182;28;20035;-71
2023/06/07 07:37:21;;;;;;;10.30;8.07;;;18.50;99.90;;;;;;5112528;28;20435;-71
2023/06/07 07:39:47;;;;;;;10.15;9.13;;;18.50;99.90;;;;;;5112518;28;20023;-71
2023/06/07 07:42:12;;;;;;;12.05;8.60;;;18.50;99.90;;;;;;5112899;28;20023;-71
2023/06/07 07:44:38;;;;;;;8.98;8.07;;;18.50;99.90;;;;;;5112491;28;20023;-71
2023/06/07 07:47:07;;;;;;;10.85;8.13;;;18.50;99.90;;;;;;5112919;28;20056;-71
2023/06/07 07:49:33;;;;;;;9.75;8.85;;;18.50;99.90;;;;;;5112558;28;20092;-71
2023/06/07 07:51:58;;;;;;;13.30;8.55;;;18.60;99.90;;;;;;5112679;28;20023;-71
2023/06/07 07:54:25;;;;;;;9.35;8.45;;;18.60;99.90;;;;;;5112818;28;20031;-71
2023/06/07 07:56:51;;;;;;;13.60;9.88;;;18.60;99.90;;;;;;5112200;28;20458;-71
2023/06/07 07:59:16;;;;;;;14.52;9.52;;;18.60;99.90;;;;;;5112745;28;20104;-71
2023/06/07 08:01:42;;;;;;;9.27;8.38;;;18.60;99.90;;;;;;5112379;28;20062;-70
2023/06/07 08:04:08;;;;;;;12.00;9.38;;;18.60;99.90;;;;;;5112021;28;20027;-70
2023/06/07 08:06:33;;;;;;;15.15;9.38;;;18.60;99.90;;;;;;5112298;28;20076;-70
2023/06/07 08:08:59;;;;;;;11.48;9.00;;;18.70;99.90;;;;;;5112299;28;20034;-71
2023/06/07 08:11:25;;;;;;;11.63;10.05;;;18.70;99.90;;;;;;5112162;28;20047;-71
2023/06/07 08:13:51;;;;;;;10.57;9.50;;;18.70;99.90;;;;;;5112234;28;20050;-71
2023/06/07 08:16:16;;;;;;;11.27;10.07;;;18.60;99.90;;;;;;5112352;28;20464;-71
2023/06/07 08:18:44;;;;;;;10.10;9.02;;;18.60;99.90;;;;;;5112188;28;20027;-71
2023/06/07 08:21:11;;;;;;;11.38;9.13;;;18.60;99.90;;;;;;5112500;28;20043;-71
2023/06/07 08:23:37;;;;;;;12.30;9.07;;;18.60;99.90;;;;;;5112168;28;20039;-72
2023/06/07 08:26:03;;;;;;;11.50;9.50;;;18.60;99.90;;;;;;5112610;28;20104;-71
2023/06/07 08:28:28;;;;;;;11.43;8.93;;;18.70;99.90;;;;;;5112495;28;20447;-71
2023/06/07 08:30:54;;;;;;;11.32;8.98;;;18.60;99.90;;;;;;5111699;28;20039;-71
2023/06/07 08:33:20;;;;;;;9.27;8.18;;;18.70;99.90;;;;;;5112457;28;20042;-71
2023/06/07 08:35:45;;;;;;;11.73;9.20;;;18.70;99.90;;;;;;5112132;28;20028;-71
2023/06/07 08:38:11;;;;;;;13.15;9.43;;;18.70;99.90;;;;;;5116011;28;20059;-71
2023/06/07 08:40:38;;;;;;;12.77;8.50;;;18.70;99.90;;;;;;5115977;28;20024;-71
2023/06/07 08:43:03;;;;;;;8.90;7.97;;;18.70;99.90;;;;;;5115691;28;20464;-71
2023/06/07 08:45:29;;;;;;;9.02;8.13;;;18.70;99.90;;;;;;5115740;28;20035;-71
2023/06/07 08:47:58;;;;;;;14.18;8.10;;;18.80;99.90;;;;;;5115682;28;20023;-71
2023/06/07 08:50:24;;;;;;;10.40;7.80;;;18.80;99.90;;;;;;5115919;28;20039;-70
2023/06/07 08:52:54;;;;;;;8.77;7.88;;;18.80;99.90;;;;;;5114000;28;20070;-71
2023/06/07 08:55:21;;;;;;;9.38;8.38;;;18.90;99.90;;;;;;5115931;28;20019;-71
2023/06/07 08:57:52;;;;;;;9.90;8.57;;;18.90;99.90;;;;;;5115344;28;20032;-71
2023/06/07 09:00:25;;;;;;;10.23;8.25;;;18.90;99.90;;;;;;5115845;28;20047;-71
2023/06/07 09:02:52;;;;;;;11.23;8.90;;;19.00;99.90;;;;;;5115322;28;20031;-71
2023/06/07 09:05:22;;;;;;;14.32;8.77;;;19.00;99.90;;;;;;5115561;28;20464;-70
2023/06/07 09:07:48;;;;;;;11.57;8.85;;;19.10;99.90;;;;;;5115189;28;20032;-70
2023/06/07 09:10:17;;;;;;;10.80;9.18;;;19.10;99.90;;;;;;5115542;28;20380;-71
2023/06/07 09:12:46;;;;;;;12.52;9.25;;;19.10;99.90;;;;;;5115027;28;20103;-71
2023/06/07 09:15:21;;;;;;;11.38;9.82;;;19.20;99.90;;;;;;5115397;28;20028;-71
2023/06/07 09:17:59;;;;;;;14.57;10.10;;;19.20;99.90;;;;;;5114708;28;20028;-71
2023/06/07 09:20:33;;;;;;;10.70;9.15;;;19.20;99.90;;;;;;5115081;28;20426;-71
2023/06/07 09:23:06;;;;;;;11.30;10.02;;;19.20;99.90;;;;;;5114807;28;20028;-71
2023/06/07 09:25:32;;;;;;;11.40;10.20;;;19.20;99.90;;;;;;5115650;28;20031;-71
2023/06/07 09:28:01;;;;;;;13.85;10.73;;;19.30;99.90;;;;;;5114915;28;20051;-71
2023/06/07 09:30:27;;;;;;;13.82;10.38;;;19.30;99.90;;;;;;5115226;28;20051;-70
2023/06/07 09:32:52;;;;;;;11.90;9.38;;;19.40;99.90;;;;;;5114897;28;20027;-70
2023/06/07 09:35:19;;;;;;;10.55;9.32;;;19.50;99.90;;;;;;5114990;28;20375;-70
2023/06/07 09:37:57;;;;;;;10.95;9.00;;;19.50;99.90;;;;;;5114916;28;20059;-70
2023/06/07 09:40:23;;;;;;;10.88;8.27;;;19.50;99.90;;;;;;5114976;28;20042;-70
2023/06/07 09:42:57;;;;;;;10.05;7.90;;;19.50;99.90;;;;;;5114465;28;20024;-71
2023/06/07 09:45:24;;;;;;;8.18;7.38;;;19.50;99.90;;;;;;5114712;28;20023;-71
2023/06/07 09:48:04;;;;;;;9.95;8.90;;;19.60;99.90;;;;;;5113172;28;20464;-71
2023/06/07 09:50:30;;;;;;;10.90;8.15;;;19.70;99.90;;;;;;5113520;28;20422;-71
2023/06/07 09:52:57;;;;;;;9.10;7.90;;;19.80;99.90;;;;;;5114030;28;20063;-71
2023/06/07 09:55:28;;;;;;;9.32;7.82;;;19.90;99.90;;;;;;5114704;28;20041;-71
2023/06/07 09:57:55;;;;;;;9.85;7.93;;;20.00;99.90;;;;;;5113858;28;20073;-71
2023/06/07 10:00:21;;;;;;;9.43;8.23;;;20.00;99.90;;;;;;5114426;28;20489;-71
2023/06/07 10:02:48;;;;;;;7.82;7.03;;;20.20;99.90;;;;;;5114132;28;20410;-71
2023/06/07 10:05:16;;;;;;;8.05;7.07;;;20.30;99.90;;;;;;5114537;28;20031;-70
2023/06/07 10:07:45;;;;;;;8.75;7.32;;;20.40;99.90;;;;;;5114002;28;20033;-70
2023/06/07 10:10:14;;;;;;;7.28;6.30;;;20.60;99.90;;;;;;5114282;28;20031;-70
2023/06/07 10:12:44;;;;;;;7.38;6.63;;;20.70;99.90;;;;;;5114408;28;20028;-70
2023/06/07 10:15:21;;;;;;;6.90;6.20;;;20.70;99.90;;;;;;5114420;28;20058;-70
2023/06/07 10:18:09;;;;;;;8.68;6.13;;;20.80;99.90;;;;;;5114134;28;20268;-70
2023/06/07 10:20:39;;;;;;;7.93;6.65;;;20.80;99.90;;;;;;5114244;28;20027;-70
2023/06/07 10:23:10;;;;;;;8.00;6.43;;;20.80;99.90;;;;;;5113585;28;20691;-70
2023/06/07 10:26:02;;;;;;;;;;;20.90;99.90;;;;;;5114417;28;20039;-70
2023/06/07 10:28:45;;;;;;;6.63;5.90;;;20.90;99.90;;;;;;5097449;28;19904;-70
2023/06/07 10:31:15;;;;;;;7.63;6.82;;;20.90;99.90;;;;;;5112708;28;20042;-70
2023/06/07 10:33:42;;;;;;;13.20;6.65;;;20.90;99.90;;;;;;5112766;28;20023;-71
2023/06/07 10:36:08;;;;;;;7.22;6.53;;;21.00;99.90;;;;;;5113422;28;20024;-71
2023/06/07 10:38:35;;;;;;;7.88;6.47;;;21.20;99.90;;;;;;5112522;28;20038;-71
2023/06/07 10:41:03;;;;;;;6.30;5.70;;;21.30;99.90;;;;;;5113312;28;20107;-71
2023/06/07 10:43:30;;;;;;;7.72;6.82;;;21.40;99.90;;;;;;5113745;28;20024;-70
2023/06/07 10:46:24;;;;;;;7.38;6.28;;;21.40;99.90;;;;;;5113009;28;20121;-71
2023/06/07 10:48:51;;;;;;;7.13;6.43;;;21.40;99.90;;;;;;5113186;28;20454;-71
2023/06/07 10:51:18;;;;;;;8.75;6.63;;;21.60;99.90;;;;;;5113621;28;20081;-71
2023/06/07 10:54:02;;;;;;;7.60;6.80;;;21.80;99.90;;;;;;5113277;28;20480;-71
2023/06/07 10:56:33;;;;;;;7.55;6.75;;;21.90;99.90;;;;;;5112525;28;20444;-71
2023/06/07 10:59:14;;;;;;;8.07;6.05;;;22.00;99.90;;;;;;5113230;28;20467;-70
2023/06/07 11:01:41;;;;;;;6.85;5.88;;;22.20;99.90;;;;;;5113070;28;20551;-71
2023/06/07 11:04:07;;;;;;;7.13;6.40;;;22.30;99.90;;;;;;5112847;28;20059;-71
2023/06/07 11:06:33;;;;;;;12.68;7.30;;;22.40;99.90;;;;;;5113332;28;20051;-71
2023/06/07 11:09:22;;;;;;;7.28;6.43;;;22.50;99.90;;;;;;5112657;28;20483;-72
2023/06/07 11:11:48;;;;;;;12.98;6.95;;;22.60;99.20;;;;;;5113224;28;20044;-70
2023/06/07 11:14:14;;;;;;;7.47;6.68;;;22.60;99.40;;;;;;5113041;28;20137;-71
2023/06/07 11:16:40;;;;;;;8.30;6.40;;;22.80;99.10;;;;;;5113012;28;20033;-71
2023/06/07 11:19:12;;;;;;;8.00;6.68;;;22.80;99.80;;;;;;5111614;28;20031;-71
2023/06/07 11:22:04;;;;;;;7.00;5.88;;;22.90;99.90;;;;;;5113002;28;20066;-71
2023/06/07 11:24:31;;;;;;;8.13;6.43;;;22.90;99.00;;;;;;5111431;28;20376;-71
2023/06/07 11:26:56;;;;;;;9.82;7.15;;;22.90;98.50;;;;;;5112337;28;20020;-71
2023/06/07 11:29:22;;;;;;;7.25;6.22;;;22.80;97.00;;;;;;5112831;28;20077;-71
2023/06/07 11:31:57;;;;;;;9.25;6.78;;;22.80;96.80;;;;;;5113002;28;20349;-71
2023/06/07 11:34:24;;;;;;;8.02;6.97;;;22.80;96.60;;;;;;5112675;28;20111;-71
2023/06/07 11:36:49;;;;;;;7.85;6.47;;;22.80;97.10;;;;;;5112912;28;20435;-71
2023/06/07 11:39:19;;;;;;;13.27;6.88;;;22.70;96.80;;;;;;5112446;28;20051;-71
2023/06/07 11:41:45;;;;;;;11.32;6.70;;;22.70;97.00;;;;;;5112936;28;20062;-71
2023/06/07 11:44:10;;;;;;;8.40;6.68;;;22.70;97.60;;;;;;5112447;28;20847;-71
2023/06/07 11:46:37;;;;;;;8.88;6.85;;;22.60;96.50;;;;;;5111294;28;20131;-71
2023/06/07 11:49:09;;;;;;;10.95;8.05;;;22.60;96.20;;;;;;5112334;28;20030;-71
2023/06/07 11:51:36;;;;;;;7.85;6.88;;;22.50;97.10;;;;;;5112495;28;20088;-71
2023/06/07 11:54:02;;;;;;;8.85;7.18;;;22.50;97.80;;;;;;5112539;28;20027;-71
2023/06/07 11:56:28;;;;;;;11.07;7.90;;;22.50;97.80;;;;;;5112863;28;20372;-71
2023/06/07 11:58:54;;;;;;;10.32;7.55;;;22.50;97.60;;;;;;5112213;28;20034;-71
2023/06/07 12:01:20;;;;;;;13.45;8.10;;;22.40;98.00;;;;;;5112439;28;20031;-71
2023/06/07 12:03:47;;;;;;;9.68;6.95;;;22.40;98.60;;;;;;5112016;28;20062;-71
2023/06/07 12:06:13;;;;;;;7.60;6.47;;;22.30;97.90;;;;;;5112182;28;20201;-71
2023/06/07 12:08:38;;;;;;;8.05;6.95;;;22.30;97.80;;;;;;5112188;28;20483;-71
2023/06/07 12:11:04;;;;;;;7.07;6.38;;;22.20;97.70;;;;;;5112418;28;20448;-71
2023/06/07 12:13:40;;;;;;;8.15;6.22;;;22.10;97.70;;;;;;5116388;28;20031;-70
2023/06/07 12:16:07;;;;;;;10.25;6.63;;;22.10;97.60;;;;;;5116075;28;20024;-71
2023/06/07 12:18:38;;;;;;;10.27;6.93;;;22.10;97.70;;;;;;5116359;28;20035;-70
2023/06/07 12:21:16;;;;;;;8.18;7.03;;;22.10;98.30;;;;;;5115965;28;20049;-69
2023/06/07 12:23:51;;;;;;;8.30;6.30;;;22.00;97.90;;;;;;5116192;28;20072;-70
2023/06/07 12:26:19;;;;;;;8.68;7.40;;;22.00;97.80;;;;;;5115915;28;20054;-70
2023/06/07 12:28:48;;;;;;;11.38;8.18;;;22.00;98.10;;;;;;5116257;28;20034;-69
2023/06/07 12:31:20;;;;;;;12.07;7.88;;;22.00;98.90;;;;;;5115796;28;20467;-71
2023/06/07 12:34:12;;;;;;;12.63;9.10;;;22.00;99.40;;;;;;5116245;28;20067;-71
2023/06/07 12:36:39;;;;;;;12.82;9.05;;;22.00;99.80;;;;;;5113308;27;20067;-70
2023/06/07 12:39:09;;;;;;;12.55;8.73;;;22.00;99.90;;;;;;5114649;28;20059;-69
2023/06/07 12:41:37;;;;;;;9.85;8.07;;;22.00;99.90;;;;;;5116030;28;20028;-70
2023/06/07 12:44:05;;;;;;;16.05;9.35;;;22.00;99.90;;;;;;5115499;28;20040;-70
2023/06/07 12:46:31;;;;;;;12.55;8.98;;;21.90;99.90;;;;;;5115635;28;20036;-70